Time;durP1;ratioP1;P1;durP2;ratioP2;P2;SDS_P1;SDS_P2;PMS_P1;PMS_P2;Temp;Humidity;BMP_temperature;BMP_pressure;BME280_temperature;BME280_humidity;BME280_pressure;Samples;Min_cycle;Max_cycle;Signal;HPM_P1;HPM_P2
2023/09/18 00:00:25;;;;;;;;;;;18.30;47.70;;;;;;5118062;27;19923;-72
2023/09/18 00:02:50;;;;;;;;;;;18.30;49.60;;;;;;5128854;27;19927;-72
2023/09/18 00:05:16;;;;;;;;;;;18.30;54.60;;;;;;5114915;27;19924;-72
2023/09/18 00:07:43;;;;;;;;;;;18.30;58.40;;;;;;5124365;27;19930;-72
2023/09/18 00:10:09;;;;;;;;;;;18.30;58.30;;;;;;5113004;27;19931;-72
2023/09/18 00:12:35;;;;;;;;;;;18.30;58.30;;;;;;5129132;27;19976;-72
2023/09/18 00:15:00;;;;;;;;;;;18.20;58.40;;;;;;5115392;27;19936;-72
2023/09/18 00:17:26;;;;;;;;;;;18.20;58.00;;;;;;5120474;27;19931;-72
2023/09/18 00:19:52;;;;;;;;;;;18.20;58.40;;;;;;5106741;27;19976;-72
2023/09/18 00:22:17;;;;;;;;;;;18.20;59.10;;;;;;5102075;28;19927;-72
2023/09/18 00:24:43;;;;;;;;;;;18.20;59.40;;;;;;5122852;27;19927;-72
2023/09/18 00:27:10;;;;;;;;;;;18.20;59.20;;;;;;5129854;27;19924;-72
2023/09/18 00:29:36;;;;;;;;;;;18.20;59.50;;;;;;5126985;27;19932;-72
2023/09/18 00:32:01;;;;;;;;;;;18.10;59.10;;;;;;5119681;27;20313;-71
2023/09/18 00:34:29;;;;;;;;;;;18.10;58.80;;;;;;5124510;27;20456;-72
2023/09/18 00:36:54;;;;;;;;;;;18.00;58.90;;;;;;5127776;27;20006;-71
2023/09/18 00:39:20;;;;;;;;;;;18.00;59.50;;;;;;5124811;27;20093;-72
2023/09/18 00:41:49;;;;;;;;;;;18.00;59.70;;;;;;5129113;27;19927;-72
2023/09/18 00:44:14;;;;;;;;;;;17.90;60.10;;;;;;5126821;27;19924;-72
2023/09/18 00:46:40;;;;;;;;;;;17.90;60.80;;;;;;5108425;27;20381;-72
2023/09/18 00:49:06;;;;;;;;;;;18.00;62.20;;;;;;5124171;27;19969;-72
2023/09/18 00:51:32;;;;;;;;;;;18.00;63.00;;;;;;5120202;27;19923;-72
2023/09/18 00:53:57;;;;;;;;;;;18.00;63.30;;;;;;5125494;27;20343;-72
2023/09/18 00:56:23;;;;;;;;;;;18.00;64.20;;;;;;5126824;27;19923;-72
2023/09/18 00:58:50;;;;;;;;;;;18.00;64.60;;;;;;5110183;28;20314;-72
2023/09/18 01:01:22;;;;;;;;;;;18.00;64.50;;;;;;5120360;27;19931;-72
2023/09/18 01:03:48;;;;;;;;;;;18.10;65.10;;;;;;5125521;27;19931;-72
2023/09/18 01:06:14;;;;;;;;;;;18.00;66.30;;;;;;5121701;27;19930;-72
2023/09/18 01:08:39;;;;;;;;;;;18.10;66.70;;;;;;5107367;27;19924;-72
2023/09/18 01:11:22;;;;;;;;;;;18.10;66.60;;;;;;5118476;27;20351;-72
2023/09/18 01:13:53;;;;;;;;;;;18.20;67.00;;;;;;5127830;27;19930;-72
2023/09/18 01:16:24;;;;;;;;;;;18.20;66.70;;;;;;5124765;27;19923;-72
2023/09/18 01:18:50;;;;;;;;;;;18.20;67.40;;;;;;5116478;27;19923;-72
2023/09/18 01:21:16;;;;;;;;;;;18.10;67.60;;;;;;5091325;27;20872;-72
2023/09/18 01:23:42;;;;;;;;;;;18.20;68.00;;;;;;5128256;27;20015;-72
2023/09/18 01:26:08;;;;;;;;;;;18.20;67.80;;;;;;5107832;28;19924;-72
2023/09/18 01:28:33;;;;;;;;;;;18.20;68.10;;;;;;5125678;28;19923;-72
2023/09/18 01:30:59;;;;;;;;;;;18.30;68.40;;;;;;5122118;28;19927;-72
2023/09/18 01:33:26;;;;;;;;;;;18.30;68.80;;;;;;5122103;28;19923;-72
2023/09/18 01:35:54;;;;;;;;;;;18.30;68.50;;;;;;5122074;28;20010;-71
2023/09/18 01:38:20;;;;;;;;;;;18.30;68.40;;;;;;5086414;28;19924;-72
2023/09/18 01:40:46;;;;;;;;;;;18.30;68.70;;;;;;5127494;28;19923;-71
2023/09/18 01:43:11;;;;;;;;;;;18.20;68.50;;;;;;5123271;28;19931;-71
2023/09/18 01:45:37;;;;;;;;;;;18.30;68.30;;;;;;5118738;28;19924;-71
2023/09/18 01:48:04;;;;;;;;;;;18.30;68.00;;;;;;5114223;28;19931;-72
2023/09/18 01:50:29;;;;;;;;;;;18.30;68.00;;;;;;5091791;28;19985;-72
2023/09/18 01:52:55;;;;;;;;;;;18.30;68.40;;;;;;5092145;28;20374;-71
2023/09/18 01:55:20;;;;;;;;;;;18.30;68.10;;;;;;5110083;28;19985;-71
2023/09/18 01:57:46;;;;;;;;;;;18.30;67.80;;;;;;5113630;28;19924;-72
2023/09/18 02:00:13;;;;;;;;;;;18.30;68.20;;;;;;5113451;27;19928;-71
2023/09/18 02:02:39;;;;;;;;;;;18.30;68.20;;;;;;5114009;28;19931;-71
2023/09/18 02:05:05;;;;;;;;;;;18.30;68.10;;;;;;5078063;28;20014;-71
2023/09/18 02:07:31;;;;;;;;;;;18.30;67.60;;;;;;5102504;27;20469;-71
2023/09/18 02:09:57;;;;;;;;;;;18.30;67.90;;;;;;5130219;27;19963;-71
2023/09/18 02:12:22;;;;;;;;;;;18.30;67.70;;;;;;5095517;28;19971;-71
2023/09/18 02:14:48;;;;;;;;;;;18.30;67.40;;;;;;5095471;27;19932;-71
2023/09/18 02:17:13;;;;;;;;;;;18.30;67.60;;;;;;5132212;27;19924;-71
2023/09/18 02:19:39;;;;;;;;;;;18.30;67.60;;;;;;5129633;27;19923;-71
2023/09/18 02:22:04;;;;;;;;;;;18.30;67.50;;;;;;5113637;28;19924;-71
2023/09/18 02:24:30;;;;;;;;;;;18.30;67.10;;;;;;5112611;27;19924;-71
2023/09/18 02:26:55;;;;;;;;;;;18.30;67.20;;;;;;5112252;28;19934;-71
2023/09/18 02:29:22;;;;;;;;;;;18.30;66.70;;;;;;5113032;27;19931;-71
2023/09/18 02:31:48;;;;;;;;;;;18.30;66.70;;;;;;5113226;28;19923;-71
2023/09/18 02:34:13;;;;;;;;;;;18.30;66.40;;;;;;5125806;27;19929;-71
2023/09/18 02:36:39;;;;;;;;;;;18.20;66.20;;;;;;5113459;27;19950;-71
2023/09/18 02:39:04;;;;;;;;;;;18.30;66.40;;;;;;5122401;27;20278;-71
2023/09/18 02:41:30;;;;;;;;;;;18.20;66.70;;;;;;5130915;27;20629;-71
2023/09/18 02:43:56;;;;;;;;;;;18.20;66.30;;;;;;5128970;27;20011;-71
2023/09/18 02:46:21;;;;;;;;;;;18.30;67.00;;;;;;5131774;27;20350;-71
2023/09/18 02:48:47;;;;;;;;;;;18.30;67.40;;;;;;5110844;27;20437;-71
2023/09/18 02:51:12;;;;;;;;;;;18.30;66.90;;;;;;5100405;28;20010;-71
2023/09/18 02:53:38;;;;;;;;;;;18.30;67.10;;;;;;5099258;28;19949;-72
2023/09/18 02:56:03;;;;;;;;;;;18.30;67.10;;;;;;5113615;27;19981;-71
2023/09/18 02:58:30;;;;;;;;;;;18.30;67.10;;;;;;5101823;27;19937;-73
2023/09/18 03:00:59;;;;;;;;;;;18.40;67.20;;;;;;5118709;27;20347;-71
2023/09/18 03:03:25;;;;;;;;;;;18.40;66.80;;;;;;5113493;27;19930;-71
2023/09/18 03:05:51;;;;;;;;;;;18.40;66.10;;;;;;5113537;27;19928;-72
2023/09/18 03:08:16;;;;;;;;;;;18.50;65.50;;;;;;5111570;28;19924;-72
2023/09/18 03:10:43;;;;;;;;;;;18.50;65.30;;;;;;5112410;28;20381;-72
2023/09/18 03:13:09;;;;;;;;;;;18.50;64.60;;;;;;5097806;28;19957;-72
2023/09/18 03:15:35;;;;;;;;;;;18.50;63.90;;;;;;5115231;27;19938;-72
2023/09/18 03:18:02;;;;;;;;;;;18.50;63.20;;;;;;5117809;27;19931;-71
2023/09/18 03:20:28;;;;;;;;;;;18.40;63.00;;;;;;5115314;27;19923;-71
2023/09/18 03:22:56;;;;;;;;;;;18.50;62.80;;;;;;5118375;27;19923;-71
2023/09/18 03:25:21;;;;;;;;;;;18.50;62.80;;;;;;5102401;28;19978;-71
2023/09/18 03:27:47;;;;;;;;;;;18.40;62.00;;;;;;5118178;27;20027;-72
2023/09/18 03:30:15;;;;;;;;;;;18.40;62.10;;;;;;5102026;28;20495;-71
2023/09/18 03:32:41;;;;;;;;;;;18.40;62.10;;;;;;5072858;28;19924;-71
2023/09/18 03:35:08;;;;;;;;;;;18.40;62.50;;;;;;5111792;27;19979;-71
2023/09/18 03:37:34;;;;;;;;;;;18.40;62.70;;;;;;5105427;27;19924;-72
2023/09/18 03:40:00;;;;;;;;;;;18.40;63.10;;;;;;5100058;27;20010;-71
2023/09/18 03:42:25;;;;;;;;;;;18.40;62.70;;;;;;5115468;27;20438;-72
2023/09/18 03:44:51;;;;;;;;;;;18.40;62.80;;;;;;5118460;27;20503;-71
2023/09/18 03:47:16;;;;;;;;;;;18.30;62.70;;;;;;5115829;27;19967;-72
2023/09/18 03:49:42;;;;;;;;;;;18.30;62.90;;;;;;5097276;28;20003;-72
2023/09/18 03:52:07;;;;;;;;;;;18.30;63.00;;;;;;5112174;28;20009;-71
2023/09/18 03:54:34;;;;;;;;;;;18.30;63.50;;;;;;5111934;27;20324;-71
2023/09/18 03:56:59;;;;;;;;;;;18.30;63.50;;;;;;5111200;28;19935;-71
2023/09/18 03:59:25;;;;;;;;;;;18.30;63.90;;;;;;5111993;27;20016;-72
2023/09/18 04:01:50;;;;;;;;;;;18.30;63.40;;;;;;5111007;28;19928;-72
2023/09/18 04:04:16;;;;;;;;;;;18.30;63.60;;;;;;5112126;28;19924;-72
2023/09/18 04:06:42;;;;;;;;;;;18.30;64.00;;;;;;5111001;28;20301;-72
2023/09/18 04:09:08;;;;;;;;;;;18.40;64.00;;;;;;5116302;27;20376;-72
2023/09/18 04:11:33;;;;;;;;;;;18.40;63.50;;;;;;5093485;28;19967;-72
2023/09/18 04:14:05;;;;;;;;;;;18.40;63.70;;;;;;5114343;27;19938;-72
2023/09/18 04:16:35;;;;;;;;;;;18.40;63.70;;;;;;5110905;28;20324;-72
2023/09/18 04:19:01;;;;;;;;;;;18.40;63.10;;;;;;5110803;28;19963;-72
2023/09/18 04:21:27;;;;;;;;;;;18.40;63.80;;;;;;5110986;28;19992;-71
2023/09/18 04:23:58;;;;;;;;;;;18.40;63.40;;;;;;5112077;27;19938;-72
2023/09/18 04:26:24;;;;;;;;;;;18.40;64.10;;;;;;5093174;28;19969;-72
2023/09/18 04:28:50;;;;;;;;;;;18.40;63.70;;;;;;5112178;27;19928;-72
2023/09/18 04:31:16;;;;;;;;;;;18.40;63.50;;;;;;5112113;27;19947;-72
2023/09/18 04:33:41;;;;;;;;;;;18.40;63.30;;;;;;5110443;28;19959;-71
2023/09/18 04:36:07;;;;;;;;;;;18.40;63.60;;;;;;5111085;28;19960;-72
2023/09/18 04:38:33;;;;;;;;;;;18.40;63.80;;;;;;5111111;27;19993;-72
2023/09/18 04:40:59;;;;;;;;;;;18.40;64.00;;;;;;5111599;27;20382;-72
2023/09/18 04:43:25;;;;;;;;;;;18.40;64.20;;;;;;5111428;27;19924;-72
2023/09/18 04:45:50;;;;;;;;;;;18.30;63.80;;;;;;5110645;28;19953;-71
2023/09/18 04:48:16;;;;;;;;;;;18.40;63.90;;;;;;5112377;27;19999;-72
2023/09/18 04:50:42;;;;;;;;;;;18.40;64.10;;;;;;5111368;27;19923;-71
2023/09/18 04:53:08;;;;;;;;;;;18.40;64.10;;;;;;5093360;28;20378;-71
2023/09/18 04:55:34;;;;;;;;;;;18.40;63.80;;;;;;5110802;28;20393;-72
2023/09/18 04:57:59;;;;;;;;;;;18.40;63.00;;;;;;5111043;27;19924;-72
2023/09/18 05:00:26;;;;;;;;;;;18.50;63.70;;;;;;5113943;27;20307;-72
2023/09/18 05:02:51;;;;;;;;;;;18.50;63.00;;;;;;5111295;27;19978;-72
2023/09/18 05:05:18;;;;;;;;;;;18.40;63.40;;;;;;5111436;28;19971;-72
2023/09/18 05:07:43;;;;;;;;;;;18.50;63.40;;;;;;5112798;27;19932;-72
2023/09/18 05:10:09;;;;;;;;;;;18.50;63.10;;;;;;5113315;27;19953;-72
2023/09/18 05:12:34;;;;;;;;;;;18.50;62.60;;;;;;5113101;28;19969;-72
2023/09/18 05:15:00;;;;;;;;;;;18.50;63.00;;;;;;5113823;27;19928;-72
2023/09/18 05:17:42;;;;;;;;;;;18.60;62.70;;;;;;5113652;28;19923;-72
2023/09/18 05:20:10;;;;;;;;;;;18.60;62.50;;;;;;5114167;27;19923;-72
2023/09/18 05:22:35;;;;;;;;;;;18.60;61.90;;;;;;5117211;28;20393;-72
2023/09/18 05:25:01;;;;;;;;;;;18.60;61.70;;;;;;5095518;28;19930;-72
2023/09/18 05:27:26;;;;;;;;;;;18.60;62.00;;;;;;5113585;28;19973;-72
2023/09/18 05:29:52;;;;;;;;;;;18.60;61.60;;;;;;5113028;27;19928;-72
2023/09/18 05:32:17;;;;;;;;;;;18.60;61.20;;;;;;5117638;28;19924;-72
2023/09/18 05:34:43;;;;;;;;;;;18.60;61.40;;;;;;5113588;28;20018;-72
2023/09/18 05:37:09;;;;;;;;;;;18.60;61.60;;;;;;5112687;28;20389;-71
2023/09/18 05:39:34;;;;;;;;;;;18.60;62.00;;;;;;5109386;28;20002;-71
2023/09/18 05:42:00;;;;;;;;;;;18.70;61.60;;;;;;5116986;28;19923;-72
2023/09/18 05:44:25;;;;;;;;;;;18.70;60.60;;;;;;5113891;28;19924;-72
2023/09/18 05:46:51;;;;;;;;;;;18.70;61.40;;;;;;5116325;28;19927;-72
2023/09/18 05:49:17;;;;;;;;;;;18.70;61.20;;;;;;5093435;28;20061;-72
2023/09/18 05:51:43;;;;;;;;;;;18.80;60.70;;;;;;5093327;28;20014;-72
2023/09/18 05:54:09;;;;;;;;;;;18.80;60.20;;;;;;5095358;28;19947;-72
2023/09/18 05:56:34;;;;;;;;;;;18.80;60.20;;;;;;5117987;28;19923;-72
2023/09/18 05:59:00;;;;;;;;;;;18.80;59.40;;;;;;5096031;28;19928;-72
2023/09/18 06:01:26;;;;;;;;;;;18.80;58.50;;;;;;5118079;28;19931;-72
2023/09/18 06:03:51;;;;;;;;;;;18.80;58.40;;;;;;5114123;28;20306;-72
2023/09/18 06:06:17;;;;;;;;;;;18.90;58.60;;;;;;5112649;28;20293;-72
2023/09/18 06:08:42;;;;;;;;;;;18.90;58.20;;;;;;5112909;28;20115;-72
2023/09/18 06:11:08;;;;;;;;;;;18.90;57.80;;;;;;5091724;28;20482;-72
2023/09/18 06:13:34;;;;;;;;;;;19.00;57.90;;;;;;5109414;28;20010;-72
2023/09/18 06:16:05;;;;;;;;;;;19.00;57.90;;;;;;5109921;28;20015;-72
2023/09/18 06:18:31;;;;;;;;;;;18.90;57.20;;;;;;5091998;28;19936;-72
2023/09/18 06:20:56;;;;;;;;;;;19.00;57.10;;;;;;5110210;28;19930;-72
2023/09/18 06:23:21;;;;;;;;;;;19.00;57.00;;;;;;5109974;28;19924;-72
2023/09/18 06:25:47;;;;;;;;;;;19.00;56.90;;;;;;5109882;28;20389;-72
2023/09/18 06:28:12;;;;;;;;;;;19.00;56.90;;;;;;5110442;28;19924;-72
2023/09/18 06:30:38;;;;;;;;;;;19.00;57.00;;;;;;5109232;28;19931;-72
2023/09/18 06:33:04;;;;;;;;;;;19.00;57.00;;;;;;5110052;28;19924;-72
2023/09/18 06:35:29;;;;;;;;;;;19.00;56.70;;;;;;5110371;28;19924;-72
2023/09/18 06:37:58;;;;;;;;;;;19.00;57.60;;;;;;5109469;28;19930;-72
2023/09/18 06:40:25;;;;;;;;;;;19.00;56.90;;;;;;5109390;28;19931;-72
2023/09/18 06:42:51;;;;;;;;;;;19.00;57.20;;;;;;5113566;27;19943;-72
2023/09/18 06:45:17;;;;;;;;;;;19.00;59.50;;;;;;5094179;28;19979;-72
2023/09/18 06:47:42;;;;;;;;;;;19.00;59.20;;;;;;5113737;27;20372;-72
2023/09/18 06:50:09;;;;;;;;;;;18.90;60.70;;;;;;5112944;28;20341;-72
2023/09/18 06:52:34;;;;;;;;;;;18.90;60.60;;;;;;5113368;27;19977;-72
2023/09/18 06:55:00;;;;;;;;;;;18.90;61.10;;;;;;5112290;28;20286;-72
2023/09/18 06:57:25;;;;;;;;;;;19.00;61.30;;;;;;5113298;27;19923;-71
2023/09/18 06:59:51;;;;;;;;;;;18.90;62.00;;;;;;5113744;27;19965;-71
2023/09/18 07:02:17;;;;;;;;;;;18.90;61.00;;;;;;5113315;27;20022;-71
2023/09/18 07:04:45;;;;;;;;;;;18.80;62.20;;;;;;5112262;27;20072;-71
2023/09/18 07:07:14;;;;;;;;;;;18.80;63.10;;;;;;5112750;28;19924;-71
2023/09/18 07:09:43;;;;;;;;;;;18.70;65.00;;;;;;5096690;28;19923;-71
2023/09/18 07:12:11;;;;;;;;;;;18.70;65.40;;;;;;5115838;27;19923;-71
2023/09/18 07:14:37;;;;;;;;;;;18.70;66.90;;;;;;5099785;28;20014;-71
2023/09/18 07:17:03;;;;;;;;;;;18.70;67.90;;;;;;5116618;27;19949;-71
2023/09/18 07:19:29;;;;;;;;;;;18.70;68.10;;;;;;5118139;27;19924;-71
2023/09/18 07:21:54;;;;;;;;;;;18.70;67.90;;;;;;5113085;27;19964;-71
2023/09/18 07:24:20;;;;;;;;;;;18.70;68.90;;;;;;5112351;28;20006;-71
2023/09/18 07:26:46;;;;;;;;;;;18.70;68.80;;;;;;5113443;27;20409;-71
2023/09/18 07:29:13;;;;;;;;;;;18.70;69.40;;;;;;5094434;28;19924;-71
2023/09/18 07:31:40;;;;;;;;;;;18.70;68.30;;;;;;5112986;27;19963;-71
2023/09/18 07:34:05;;;;;;;;;;;18.60;69.70;;;;;;5112662;27;19924;-71
2023/09/18 07:36:31;;;;;;;;;;;18.60;70.30;;;;;;5112924;27;19932;-70
2023/09/18 07:38:57;;;;;;;;;;;18.60;70.40;;;;;;5094076;28;19924;-70
2023/09/18 07:41:23;;;;;;;;;;;18.50;70.50;;;;;;5094701;27;19924;-70
2023/09/18 07:43:48;;;;;;;;;;;18.50;71.50;;;;;;5112015;27;20427;-70
2023/09/18 07:46:14;;;;;;;;;;;18.40;72.60;;;;;;5112006;27;19924;-70
2023/09/18 07:48:39;;;;;;;;;;;18.30;72.70;;;;;;5111957;27;19932;-70
2023/09/18 07:51:05;;;;;;;;;;;18.40;73.60;;;;;;5113101;27;20023;-70
2023/09/18 07:53:32;;;;;;;;;;;18.40;74.60;;;;;;5111740;27;19983;-70
2023/09/18 07:55:58;;;;;;;;;;;18.30;74.90;;;;;;5112224;27;19924;-70
2023/09/18 07:58:27;;;;;;;;;;;18.30;75.40;;;;;;5111636;27;20328;-70
2023/09/18 08:00:57;;;;;;;;;;;18.40;76.80;;;;;;5111743;27;19930;-70
2023/09/18 08:03:23;;;;;;;;;;;18.30;77.60;;;;;;5111848;27;19971;-69
2023/09/18 08:05:52;;;;;;;;;;;18.30;78.10;;;;;;5100606;27;20216;-69
2023/09/18 08:08:20;;;;;;;;;;;18.30;78.60;;;;;;5111139;28;19924;-70
2023/09/18 08:10:48;;;;;;;;;;;18.30;78.80;;;;;;5111878;27;20549;-70
2023/09/18 08:13:14;;;;;;;;;;;18.40;79.00;;;;;;5095659;28;19974;-70
2023/09/18 08:15:39;;;;;;;;;;;18.30;79.30;;;;;;5111291;28;19974;-70
2023/09/18 08:18:05;;;;;;;;;;;18.40;80.20;;;;;;5111221;28;20006;-70
2023/09/18 08:20:30;;;;;;;;;;;18.40;80.80;;;;;;5116034;27;19990;-70
2023/09/18 08:22:56;;;;;;;;;;;18.30;81.20;;;;;;5114239;27;19923;-70
2023/09/18 08:25:22;;;;;;;;;;;18.40;81.60;;;;;;5113409;27;19946;-70
2023/09/18 08:27:48;;;;;;;;;;;18.40;82.00;;;;;;5111451;27;19931;-70
2023/09/18 08:30:14;;;;;;;;;;;18.50;82.20;;;;;;5112661;27;19924;-70
2023/09/18 08:32:40;;;;;;;;;;;18.50;82.00;;;;;;5111786;27;19924;-70
2023/09/18 08:35:05;;;;;;;;;;;18.50;82.50;;;;;;5111031;28;20407;-69
2023/09/18 08:37:31;;;;;;;;;;;18.50;82.60;;;;;;5113401;27;20393;-69
2023/09/18 08:39:57;;;;;;;;;;;18.60;82.80;;;;;;5116094;27;20355;-70
2023/09/18 08:42:23;;;;;;;;;;;18.50;82.70;;;;;;5114921;27;19931;-69
2023/09/18 08:44:50;;;;;;;;;;;18.60;82.90;;;;;;5113775;27;20010;-70
2023/09/18 08:47:17;;;;;;;;;;;18.60;83.00;;;;;;5110162;28;19978;-70
2023/09/18 08:49:42;;;;;;;;;;;18.60;82.90;;;;;;5115717;27;20030;-70
2023/09/18 08:52:08;;;;;;;;;;;18.60;83.00;;;;;;5114449;27;20011;-70
2023/09/18 08:54:34;;;;;;;;;;;18.60;83.40;;;;;;5109364;28;20427;-70
2023/09/18 08:57:00;;;;;;;;;;;18.60;83.30;;;;;;5109490;27;20360;-70
2023/09/18 08:59:26;;;;;;;;;;;18.60;83.50;;;;;;5110953;27;19927;-69
2023/09/18 09:01:51;;;;;;;;;;;18.60;83.90;;;;;;5110925;28;19924;-69
2023/09/18 09:04:17;;;;;;;;;;;18.60;84.00;;;;;;5109390;28;20358;-70
2023/09/18 09:06:43;;;;;;;;;;;18.60;84.40;;;;;;5113261;27;19969;-69
2023/09/18 09:09:09;;;;;;;;;;;18.60;84.10;;;;;;5097936;27;20353;-70
2023/09/18 09:11:34;;;;;;;;;;;18.60;84.10;;;;;;5109663;27;19924;-70
2023/09/18 09:14:17;;;;;;;;;;;18.60;83.60;;;;;;5111968;27;20045;-70
2023/09/18 09:16:47;;;;;;;;;;;18.60;84.20;;;;;;5113660;27;19931;-69
2023/09/18 09:19:13;;;;;;;;;;;18.60;84.70;;;;;;5117943;27;19923;-70
2023/09/18 09:21:39;;;;;;;;;;;18.60;85.10;;;;;;5113997;27;19943;-70
2023/09/18 09:24:05;;;;;;;;;;;18.60;85.40;;;;;;5117675;27;19947;-70
2023/09/18 09:26:31;;;;;;;;;;;18.60;85.70;;;;;;5115380;27;19928;-70
2023/09/18 09:28:56;;;;;;;;;;;18.70;85.90;;;;;;5120251;27;19962;-70
2023/09/18 09:31:27;;;;;;;;;;;18.70;85.70;;;;;;5115246;28;20358;-69
2023/09/18 09:33:53;;;;;;;;;;;18.70;85.70;;;;;;5114760;28;20404;-70
2023/09/18 09:36:19;;;;;;;;;;;18.70;85.70;;;;;;5097059;28;19970;-70
2023/09/18 09:38:45;;;;;;;;;;;18.80;86.00;;;;;;5109115;28;19963;-70
2023/09/18 09:41:13;;;;;;;;;;;18.80;86.10;;;;;;5114844;28;19968;-70
2023/09/18 09:43:41;;;;;;;;;;;18.80;86.10;;;;;;5105060;28;19928;-69
2023/09/18 09:46:14;;;;;;;;;;;18.80;86.30;;;;;;5091491;28;19977;-70
2023/09/18 09:48:39;;;;;;;;;;;18.90;87.40;;;;;;5109775;28;20011;-70
2023/09/18 09:51:05;;;;;;;;;;;19.00;87.60;;;;;;5110416;28;20018;-69
2023/09/18 09:53:47;;;;;;;;;;;19.00;87.40;;;;;;5109571;28;20036;-70
2023/09/18 09:56:14;;;;;;;;;;;19.00;87.20;;;;;;5092356;28;19927;-70
2023/09/18 09:58:43;;;;;;;;;;;19.00;87.30;;;;;;5109502;28;19930;-70
2023/09/18 10:01:11;;;;;;;;;;;19.10;87.30;;;;;;5110637;28;20380;-69
2023/09/18 10:03:38;;;;;;;;;;;19.10;87.30;;;;;;5109412;28;19928;-69
2023/09/18 10:06:04;;;;;;;;;;;19.10;86.90;;;;;;5115929;28;20397;-70
2023/09/18 10:08:31;;;;;;;;;;;19.20;87.60;;;;;;5109928;28;19931;-70
2023/09/18 10:11:05;;;;;;;;;;;19.40;88.50;;;;;;5112144;28;19928;-69
2023/09/18 10:13:32;;;;;;;;;;;19.40;88.30;;;;;;5112138;28;19947;-69
2023/09/18 10:16:00;;;;;;;;;;;19.40;87.90;;;;;;5115986;27;19959;-69
2023/09/18 10:18:27;;;;;;;;;;;19.50;87.90;;;;;;5113650;28;19924;-69
2023/09/18 10:20:57;;;;;;;;;;;19.40;87.80;;;;;;5117855;27;19927;-69
2023/09/18 10:23:44;;;;;;;;;;;19.50;88.60;;;;;;5097245;28;20448;-69
2023/09/18 10:26:11;;;;;;;;;;;19.60;88.00;;;;;;5112623;28;19924;-69
2023/09/18 10:28:37;;;;;;;;;;;19.60;87.90;;;;;;5117249;27;19932;-69
2023/09/18 10:31:03;;;;;;;;;;;19.60;88.20;;;;;;5093786;28;19928;-69
2023/09/18 10:33:29;;;;;;;;;;;19.70;88.10;;;;;;5113340;28;19939;-69
2023/09/18 10:35:55;;;;;;;;;;;19.70;88.20;;;;;;5115326;27;19988;-69
2023/09/18 10:38:22;;;;;;;;;;;19.80;89.70;;;;;;5112949;28;19936;-70
2023/09/18 10:40:47;;;;;;;;;;;19.90;90.00;;;;;;5115419;27;19924;-69
2023/09/18 10:43:15;;;;;;;;;;;20.10;90.20;;;;;;5117516;27;20309;-70
2023/09/18 10:45:41;;;;;;;;;;;20.40;91.40;;;;;;5115021;27;19934;-70
2023/09/18 10:48:08;;;;;;;;;;;20.70;90.80;;;;;;5112872;28;19931;-70
2023/09/18 10:50:34;;;;;;;;;;;20.80;88.80;;;;;;5104116;27;19929;-70
2023/09/18 10:53:00;;;;;;;;;;;20.90;88.50;;;;;;5118360;27;19932;-70
2023/09/18 10:55:26;;;;;;;;;;;21.00;86.30;;;;;;5116059;27;19930;-70
2023/09/18 10:57:55;;;;;;;;;;;21.10;85.10;;;;;;5115165;27;19931;-69
2023/09/18 11:00:25;;;;;;;;;;;21.70;90.00;;;;;;5116274;27;19932;-69
2023/09/18 11:02:53;;;;;;;;;;;21.90;82.10;;;;;;5108428;28;20562;-69
2023/09/18 11:05:34;;;;;;;;;;;22.10;81.20;;;;;;5112006;28;19971;-70
2023/09/18 11:08:18;;;;;;;;;;;22.20;73.70;;;;;;5112148;28;20358;-70
2023/09/18 11:11:09;;;;;;;;;;;22.30;74.30;;;;;;5112126;27;20381;-70
2023/09/18 11:13:36;;;;;;;;;;;22.50;67.80;;;;;;5102902;28;19931;-70
2023/09/18 11:16:24;;;;;;;;;;;22.40;64.70;;;;;;5112398;27;19976;-70
2023/09/18 11:18:52;;;;;;;;;;;22.40;63.10;;;;;;5100686;27;19932;-70
2023/09/18 11:21:22;;;;;;;;;;;22.30;62.10;;;;;;5115569;27;19978;-70
2023/09/18 11:23:57;;;;;;;;;;;22.20;61.40;;;;;;5116176;27;19931;-69
2023/09/18 11:26:23;;;;;;;;;;;22.20;62.70;;;;;;5110402;28;19924;-70
2023/09/18 11:28:50;;;;;;;;;;;22.40;62.10;;;;;;5110140;28;19979;-70
2023/09/18 11:31:16;;;;;;;;;;;22.70;63.40;;;;;;5110483;28;19924;-70
2023/09/18 11:33:46;;;;;;;;;;;23.30;60.70;;;;;;5110029;28;19988;-70
2023/09/18 11:36:14;;;;;;;;;;;23.60;48.10;;;;;;5113772;27;20026;-70
2023/09/18 11:38:56;;;;;;;;;;;23.70;46.00;;;;;;5110079;28;20428;-70
2023/09/18 11:41:29;;;;;;;;;;;24.40;47.80;;;;;;5107260;28;19931;-70
2023/09/18 11:44:10;;;;;;;;;;;25.30;38.60;;;;;;5109955;28;19924;-70
2023/09/18 11:46:37;;;;;;;;;;;26.00;27.60;;;;;;5114461;27;20280;-70
2023/09/18 11:49:05;;;;;;;;;;;26.30;12.90;;;;;;5116070;27;20301;-70
2023/09/18 11:51:31;;;;;;;;;;;26.00;6.80;;;;;;5111555;27;20007;-70
2023/09/18 11:53:58;;;;;;;;;;;25.70;6.30;;;;;;5115763;27;19994;-70
2023/09/18 11:56:23;;;;;;;;;;;25.40;1.00;;;;;;5113089;27;20408;-70
2023/09/18 11:58:50;;;;;;;;;;;25.00;6.10;;;;;;5112454;27;19924;-70
2023/09/18 12:01:16;;;;;;;;;;;24.90;13.40;;;;;;5115050;27;19927;-70
2023/09/18 12:03:41;;;;;;;;;;;25.30;15.00;;;;;;5076731;28;19934;-70
2023/09/18 12:06:09;;;;;;;;;;;25.80;11.10;;;;;;5114227;27;20518;-70
2023/09/18 12:08:35;;;;;;;;;;;26.30;1.00;;;;;;5110449;28;19984;-70
2023/09/18 12:11:05;;;;;;;;;;;26.20;1.00;;;;;;5113559;27;20018;-69
2023/09/18 12:13:31;;;;;;;;;;;25.70;1.00;;;;;;5110461;28;19928;-71
2023/09/18 12:15:57;;;;;;;;;;;25.30;1.00;;;;;;5110112;27;19930;-70
2023/09/18 12:18:24;;;;;;;;;;;25.00;1.00;;;;;;5090734;27;19935;-71
2023/09/18 12:20:50;;;;;;;;;;;24.70;1.00;;;;;;5115187;27;20010;-70
2023/09/18 12:23:15;;;;;;;;;;;24.60;1.00;;;;;;5113189;27;20015;-70
2023/09/18 12:25:41;;;;;;;;;;;24.60;1.20;;;;;;5111167;27;19927;-70
2023/09/18 12:28:07;;;;;;;;;;;24.70;1.00;;;;;;5110164;28;19931;-71
2023/09/18 12:30:33;;;;;;;;;;;25.00;1.00;;;;;;5115060;27;19923;-70
2023/09/18 12:33:03;;;;;;;;;;;25.30;1.00;;;;;;5112220;27;19986;-71
2023/09/18 12:35:29;;;;;;;;;;;25.40;1.00;;;;;;5121916;27;19927;-71
2023/09/18 12:37:56;;;;;;;;;;;25.70;1.00;;;;;;5110491;28;20026;-70
2023/09/18 12:40:28;;;;;;;;;;;26.00;1.00;;;;;;5114910;27;19973;-71
2023/09/18 12:42:55;;;;;;;;;;;26.70;1.00;;;;;;5116034;27;19928;-70
2023/09/18 12:45:21;;;;;;;;;;;27.30;1.00;;;;;;5105707;27;19931;-71
2023/09/18 12:47:47;;;;;;;;;;;27.20;1.00;;;;;;5110679;27;20378;-72
2023/09/18 12:50:13;;;;;;;;;;;27.50;1.00;;;;;;5103142;28;20065;-71
2023/09/18 12:52:39;;;;;;;;;;;28.10;1.00;;;;;;5116573;27;20416;-71
2023/09/18 12:55:06;;;;;;;;;;;28.60;1.00;;;;;;5098801;27;19923;-71
2023/09/18 12:57:32;;;;;;;;;;;29.00;1.00;;;;;;5091554;28;19928;-71
2023/09/18 12:59:58;;;;;;;;;;;29.00;1.00;;;;;;5116440;27;19927;-71
2023/09/18 13:02:24;;;;;;;;;;;28.20;1.00;;;;;;5092308;28;19939;-71
2023/09/18 13:04:53;;;;;;;;;;;27.40;1.00;;;;;;5115955;27;19935;-71
2023/09/18 13:07:18;;;;;;;;;;;27.50;1.00;;;;;;5113671;27;19924;-71
2023/09/18 13:10:05;;;;;;;;;;;28.00;1.00;;;;;;5097437;28;19935;-71
2023/09/18 13:12:43;;;;;;;;;;;28.60;1.00;;;;;;5112782;27;19931;-71
2023/09/18 13:15:09;;;;;;;;;;;29.20;1.00;;;;;;5110652;28;19931;-70
2023/09/18 13:17:44;;;;;;;;;;;29.60;1.00;;;;;;5091968;28;19927;-71
2023/09/18 13:20:26;;;;;;;;;;;29.80;99.90;;;;;;5109793;28;19924;-71
2023/09/18 13:22:55;;;;;;;;;;;29.90;1.00;;;;;;5109125;28;19931;-71
2023/09/18 13:25:24;;;;;;;;;;;30.20;1.00;;;;;;5091787;28;19924;-72
2023/09/18 13:27:50;;;;;;;;;;;30.40;99.90;;;;;;5109918;28;19931;-71
2023/09/18 13:30:21;;;;;;;;;;;30.60;99.90;;;;;;5109792;28;21319;-71
2023/09/18 13:32:49;;;;;;;;;;;30.30;99.90;;;;;;5110104;28;20350;-71
2023/09/18 13:35:16;;;;;;;;;;;29.90;99.90;;;;;;5110308;28;20359;-71
2023/09/18 13:37:42;;;;;;;;;;;29.60;99.90;;;;;;5109917;28;19928;-71
2023/09/18 13:40:08;;;;;;;;;;;28.90;99.90;;;;;;5110422;28;19924;-71
2023/09/18 13:42:34;;;;;;;;;;;28.50;99.90;;;;;;5091529;28;19939;-71
2023/09/18 13:45:06;;;;;;;;;;;28.00;1.00;;;;;;5109671;28;19928;-71
2023/09/18 13:47:32;;;;;;;;;;;27.50;1.00;;;;;;5109930;28;20386;-71
2023/09/18 13:49:59;;;;;;;;;;;27.00;1.00;;;;;;5091154;28;19932;-70
2023/09/18 13:52:34;;;;;;;;;;;26.60;1.00;;;;;;5113611;28;19966;-70
2023/09/18 13:55:00;;;;;;;;;;;26.30;1.00;;;;;;5114310;27;19969;-70
2023/09/18 13:57:25;;;;;;;;;;;26.10;1.00;;;;;;5113935;27;20349;-70
2023/09/18 13:59:51;;;;;;;;;;;25.90;1.00;;;;;;5113145;27;20282;-71
2023/09/18 14:02:17;;;;;;;;;;;25.80;1.00;;;;;;5095376;28;19931;-70
2023/09/18 14:04:43;;;;;;;;;;;25.60;1.00;;;;;;5080543;27;19927;-71
2023/09/18 14:07:09;;;;;;;;;;;25.40;1.00;;;;;;5116105;27;19935;-71
2023/09/18 14:09:35;;;;;;;;;;;25.30;1.00;;;;;;5095951;28;19924;-71
2023/09/18 14:12:01;;;;;;;;;;;25.20;1.00;;;;;;5112551;28;19980;-71
2023/09/18 14:14:26;;;;;;;;;;;25.10;1.00;;;;;;5113228;27;20700;-71
2023/09/18 14:16:53;;;;;;;;;;;25.00;1.00;;;;;;5112998;28;20701;-71